sensor_id;sensor_type;location;lat;lon;timestamp;temperature;humidity
10245;DHT22;5167;52.164;10.530;2023-07-29T00:00:52;22.70;47.80
10245;DHT22;5167;52.164;10.530;2023-07-29T00:03:33;22.50;48.10
10245;DHT22;5167;52.164;10.530;2023-07-29T00:06:09;22.70;48.90
10245;DHT22;5167;52.164;10.530;2023-07-29T00:09:10;22.60;49.50
10245;DHT22;5167;52.164;10.530;2023-07-29T00:11:54;22.60;50.60
10245;DHT22;5167;52.164;10.530;2023-07-29T00:14:26;22.60;51.10
10245;DHT22;5167;52.164;10.530;2023-07-29T00:17:01;22.50;51.50
10245;DHT22;5167;52.164;10.530;2023-07-29T00:19:27;22.50;50.60
10245;DHT22;5167;52.164;10.530;2023-07-29T00:21:54;22.40;50.00
10245;DHT22;5167;52.164;10.530;2023-07-29T00:24:30;22.40;49.60
10245;DHT22;5167;52.164;10.530;2023-07-29T00:26:56;22.50;50.00
10245;DHT22;5167;52.164;10.530;2023-07-29T00:29:21;22.40;48.60
10245;DHT22;5167;52.164;10.530;2023-07-29T00:31:47;22.40;49.90
10245;DHT22;5167;52.164;10.530;2023-07-29T00:34:16;22.40;50.00
10245;DHT22;5167;52.164;10.530;2023-07-29T00:36:48;22.40;49.20
10245;DHT22;5167;52.164;10.530;2023-07-29T00:39:19;22.40;48.40
10245;DHT22;5167;52.164;10.530;2023-07-29T00:41:45;22.40;48.90
10245;DHT22;5167;52.164;10.530;2023-07-29T00:44:10;22.40;48.60
10245;DHT22;5167;52.164;10.530;2023-07-29T00:46:37;22.40;47.00
10245;DHT22;5167;52.164;10.530;2023-07-29T00:49:03;22.40;48.00
10245;DHT22;5167;52.164;10.530;2023-07-29T00:51:32;22.40;46.00
10245;DHT22;5167;52.164;10.530;2023-07-29T00:54:00;22.40;47.50
10245;DHT22;5167;52.164;10.530;2023-07-29T00:56:44;22.40;45.80
10245;DHT22;5167;52.164;10.530;2023-07-29T00:59:10;22.40;46.60
10245;DHT22;5167;52.164;10.530;2023-07-29T01:01:36;22.40;46.00
10245;DHT22;5167;52.164;10.530;2023-07-29T01:04:11;22.10;47.50
10245;DHT22;5167;52.164;10.530;2023-07-29T01:07:20;22.30;47.90
10245;DHT22;5167;52.164;10.530;2023-07-29T01:15:16;22.30;48.20
10245;DHT22;5167;52.164;10.530;2023-07-29T01:17:52;22.30;48.50
10245;DHT22;5167;52.164;10.530;2023-07-29T01:20:19;22.20;48.10
10245;DHT22;5167;52.164;10.530;2023-07-29T01:22:54;22.30;48.40
10245;DHT22;5167;52.164;10.530;2023-07-29T01:25:20;22.50;49.00
10245;DHT22;5167;52.164;10.530;2023-07-29T01:27:48;22.20;49.90
10245;DHT22;5167;52.164;10.530;2023-07-29T01:30:17;22.20;50.70
10245;DHT22;5167;52.164;10.530;2023-07-29T01:35:33;22.10;50.10
10245;DHT22;5167;52.164;10.530;2023-07-29T01:38:24;22.20;50.10
10245;DHT22;5167;52.164;10.530;2023-07-29T01:40:54;22.20;50.10
10245;DHT22;5167;52.164;10.530;2023-07-29T01:43:22;22.20;49.70
10245;DHT22;5167;52.164;10.530;2023-07-29T01:45:50;22.10;50.00
10245;DHT22;5167;52.164;10.530;2023-07-29T01:48:46;22.30;49.80
10245;DHT22;5167;52.164;10.530;2023-07-29T01:51:15;22.30;50.00
10245;DHT22;5167;52.164;10.530;2023-07-29T01:53:48;22.30;50.10
10245;DHT22;5167;52.164;10.530;2023-07-29T01:56:14;22.30;49.80
10245;DHT22;5167;52.164;10.530;2023-07-29T02:02:16;22.20;49.70
10245;DHT22;5167;52.164;10.530;2023-07-29T02:04:44;22.40;49.70
10245;DHT22;5167;52.164;10.530;2023-07-29T02:07:19;22.20;49.80
10245;DHT22;5167;52.164;10.530;2023-07-29T02:09:51;22.10;50.20
10245;DHT22;5167;52.164;10.530;2023-07-29T02:12:20;22.10;49.00
10245;DHT22;5167;52.164;10.530;2023-07-29T02:14:46;22.10;50.20
10245;DHT22;5167;52.164;10.530;2023-07-29T02:17:11;22.10;50.70
10245;DHT22;5167;52.164;10.530;2023-07-29T02:19:37;22.10;51.10
10245;DHT22;5167;52.164;10.530;2023-07-29T02:22:03;22.10;51.60
10245;DHT22;5167;52.164;10.530;2023-07-29T02:24:53;21.90;51.10
10245;DHT22;5167;52.164;10.530;2023-07-29T02:27:40;21.90;51.70
10245;DHT22;5167;52.164;10.530;2023-07-29T02:30:06;21.90;51.40
10245;DHT22;5167;52.164;10.530;2023-07-29T02:32:34;21.90;52.00
10245;DHT22;5167;52.164;10.530;2023-07-29T02:35:00;21.90;52.40
10245;DHT22;5167;52.164;10.530;2023-07-29T02:37:28;21.90;52.70
10245;DHT22;5167;52.164;10.530;2023-07-29T02:39:59;21.80;53.00
10245;DHT22;5167;52.164;10.530;2023-07-29T02:42:40;21.90;53.10
10245;DHT22;5167;52.164;10.530;2023-07-29T02:45:06;21.80;53.20
10245;DHT22;5167;52.164;10.530;2023-07-29T02:47:35;21.80;53.40
10245;DHT22;5167;52.164;10.530;2023-07-29T02:50:01;21.80;54.10
10245;DHT22;5167;52.164;10.530;2023-07-29T02:52:38;21.80;54.50
10245;DHT22;5167;52.164;10.530;2023-07-29T02:55:14;21.80;54.70
10245;DHT22;5167;52.164;10.530;2023-07-29T02:57:39;22.00;54.70
10245;DHT22;5167;52.164;10.530;2023-07-29T03:00:05;21.80;54.50
10245;DHT22;5167;52.164;10.530;2023-07-29T03:02:40;21.70;54.30
10245;DHT22;5167;52.164;10.530;2023-07-29T03:05:06;21.80;54.20
10245;DHT22;5167;52.164;10.530;2023-07-29T03:07:32;21.70;54.20
10245;DHT22;5167;52.164;10.530;2023-07-29T03:10:00;21.80;55.10
10245;DHT22;5167;52.164;10.530;2023-07-29T03:12:26;21.80;55.50
10245;DHT22;5167;52.164;10.530;2023-07-29T03:14:55;21.70;55.90
10245;DHT22;5167;52.164;10.530;2023-07-29T03:17:21;21.80;55.80
10245;DHT22;5167;52.164;10.530;2023-07-29T03:19:47;21.80;54.90
10245;DHT22;5167;52.164;10.530;2023-07-29T03:22:12;21.80;56.20
10245;DHT22;5167;52.164;10.530;2023-07-29T03:24:38;21.80;55.90
10245;DHT22;5167;52.164;10.530;2023-07-29T03:27:04;21.80;56.60
10245;DHT22;5167;52.164;10.530;2023-07-29T03:29:42;21.80;56.60
10245;DHT22;5167;52.164;10.530;2023-07-29T03:32:08;21.70;56.90
10245;DHT22;5167;52.164;10.530;2023-07-29T03:34:42;21.80;56.70
10245;DHT22;5167;52.164;10.530;2023-07-29T03:37:08;21.70;57.30
10245;DHT22;5167;52.164;10.530;2023-07-29T03:39:34;21.80;57.40
10245;DHT22;5167;52.164;10.530;2023-07-29T03:41:59;21.70;57.80
10245;DHT22;5167;52.164;10.530;2023-07-29T03:44:25;21.80;57.70
10245;DHT22;5167;52.164;10.530;2023-07-29T03:46:51;21.80;58.20
10245;DHT22;5167;52.164;10.530;2023-07-29T03:49:16;21.80;58.80
10245;DHT22;5167;52.164;10.530;2023-07-29T03:51:42;21.80;58.10
10245;DHT22;5167;52.164;10.530;2023-07-29T03:54:07;21.80;58.60
10245;DHT22;5167;52.164;10.530;2023-07-29T03:56:33;21.80;58.70
10245;DHT22;5167;52.164;10.530;2023-07-29T03:59:05;21.70;58.00
10245;DHT22;5167;52.164;10.530;2023-07-29T04:01:30;21.80;58.40
10245;DHT22;5167;52.164;10.530;2023-07-29T04:03:56;21.80;58.50
10245;DHT22;5167;52.164;10.530;2023-07-29T04:06:21;21.70;58.30
10245;DHT22;5167;52.164;10.530;2023-07-29T04:08:48;21.80;58.30
10245;DHT22;5167;52.164;10.530;2023-07-29T04:11:14;21.80;59.40
10245;DHT22;5167;52.164;10.530;2023-07-29T04:13:40;21.70;57.60
10245;DHT22;5167;52.164;10.530;2023-07-29T04:16:06;21.70;58.10
10245;DHT22;5167;52.164;10.530;2023-07-29T04:18:32;21.80;58.00
10245;DHT22;5167;52.164;10.530;2023-07-29T04:20:58;21.80;59.10
10245;DHT22;5167;52.164;10.530;2023-07-29T04:23:23;21.80;59.10
10245;DHT22;5167;52.164;10.530;2023-07-29T04:25:49;21.70;59.30
10245;DHT22;5167;52.164;10.530;2023-07-29T04:28:15;21.80;58.10
10245;DHT22;5167;52.164;10.530;2023-07-29T04:30:41;21.70;57.70
10245;DHT22;5167;52.164;10.530;2023-07-29T04:33:06;21.80;57.30
10245;DHT22;5167;52.164;10.530;2023-07-29T04:35:32;21.90;56.40
10245;DHT22;5167;52.164;10.530;2023-07-29T04:37:57;21.80;57.10
10245;DHT22;5167;52.164;10.530;2023-07-29T04:40:23;21.80;57.40
10245;DHT22;5167;52.164;10.530;2023-07-29T04:42:49;21.90;58.30
10245;DHT22;5167;52.164;10.530;2023-07-29T04:45:15;21.80;57.90
10245;DHT22;5167;52.164;10.530;2023-07-29T04:47:41;21.90;57.60
10245;DHT22;5167;52.164;10.530;2023-07-29T04:50:07;21.90;57.70
10245;DHT22;5167;52.164;10.530;2023-07-29T04:52:33;21.90;57.50
10245;DHT22;5167;52.164;10.530;2023-07-29T04:54:58;21.90;57.90
10245;DHT22;5167;52.164;10.530;2023-07-29T04:57:24;22.00;58.00
10245;DHT22;5167;52.164;10.530;2023-07-29T04:59:49;22.00;57.50
10245;DHT22;5167;52.164;10.530;2023-07-29T05:02:15;22.00;57.30
10245;DHT22;5167;52.164;10.530;2023-07-29T05:04:40;22.10;56.70
10245;DHT22;5167;52.164;10.530;2023-07-29T05:07:06;22.00;57.50
10245;DHT22;5167;52.164;10.530;2023-07-29T05:09:31;22.10;57.30
10245;DHT22;5167;52.164;10.530;2023-07-29T05:11:57;22.10;57.70
10245;DHT22;5167;52.164;10.530;2023-07-29T05:14:22;22.10;57.90
10245;DHT22;5167;52.164;10.530;2023-07-29T05:16:48;22.20;57.90
10245;DHT22;5167;52.164;10.530;2023-07-29T05:19:14;22.10;58.20
10245;DHT22;5167;52.164;10.530;2023-07-29T05:21:40;22.10;58.30
10245;DHT22;5167;52.164;10.530;2023-07-29T05:24:06;22.20;57.80
10245;DHT22;5167;52.164;10.530;2023-07-29T05:26:32;22.20;57.80
10245;DHT22;5167;52.164;10.530;2023-07-29T05:28:57;22.20;57.60
10245;DHT22;5167;52.164;10.530;2023-07-29T05:31:23;22.20;56.50
10245;DHT22;5167;52.164;10.530;2023-07-29T05:33:49;22.30;57.60
10245;DHT22;5167;52.164;10.530;2023-07-29T05:36:14;22.30;57.80
10245;DHT22;5167;52.164;10.530;2023-07-29T05:38:40;22.50;57.50
10245;DHT22;5167;52.164;10.530;2023-07-29T05:41:06;22.30;57.60
10245;DHT22;5167;52.164;10.530;2023-07-29T05:43:32;22.40;58.30
10245;DHT22;5167;52.164;10.530;2023-07-29T05:45:57;22.30;58.60
10245;DHT22;5167;52.164;10.530;2023-07-29T05:48:23;22.40;58.80
10245;DHT22;5167;52.164;10.530;2023-07-29T05:50:48;22.40;58.80
10245;DHT22;5167;52.164;10.530;2023-07-29T05:53:14;22.40;58.80
10245;DHT22;5167;52.164;10.530;2023-07-29T05:55:40;22.40;58.70
10245;DHT22;5167;52.164;10.530;2023-07-29T05:58:05;22.40;59.10
10245;DHT22;5167;52.164;10.530;2023-07-29T06:00:31;22.50;59.70
10245;DHT22;5167;52.164;10.530;2023-07-29T06:02:57;22.50;59.90
10245;DHT22;5167;52.164;10.530;2023-07-29T06:05:22;22.50;59.30
10245;DHT22;5167;52.164;10.530;2023-07-29T06:07:48;22.50;59.50
10245;DHT22;5167;52.164;10.530;2023-07-29T06:10:15;22.50;60.00
10245;DHT22;5167;52.164;10.530;2023-07-29T06:12:44;22.40;60.50
10245;DHT22;5167;52.164;10.530;2023-07-29T06:15:10;22.50;61.30
10245;DHT22;5167;52.164;10.530;2023-07-29T06:17:37;22.40;61.70
10245;DHT22;5167;52.164;10.530;2023-07-29T06:20:03;22.40;62.20
10245;DHT22;5167;52.164;10.530;2023-07-29T06:22:29;22.40;64.40
10245;DHT22;5167;52.164;10.530;2023-07-29T06:24:54;22.30;66.50
10245;DHT22;5167;52.164;10.530;2023-07-29T06:27:20;22.30;67.90
10245;DHT22;5167;52.164;10.530;2023-07-29T06:29:45;22.30;70.20
10245;DHT22;5167;52.164;10.530;2023-07-29T06:32:11;22.30;71.80
10245;DHT22;5167;52.164;10.530;2023-07-29T06:34:36;22.30;73.40
10245;DHT22;5167;52.164;10.530;2023-07-29T06:37:02;22.20;75.20
10245;DHT22;5167;52.164;10.530;2023-07-29T06:39:27;22.20;75.80
10245;DHT22;5167;52.164;10.530;2023-07-29T06:41:53;22.20;77.00
10245;DHT22;5167;52.164;10.530;2023-07-29T06:44:18;22.20;79.90
10245;DHT22;5167;52.164;10.530;2023-07-29T06:46:44;22.20;81.20
10245;DHT22;5167;52.164;10.530;2023-07-29T06:49:09;22.10;82.00
10245;DHT22;5167;52.164;10.530;2023-07-29T06:51:35;22.00;84.70
10245;DHT22;5167;52.164;10.530;2023-07-29T06:54:01;22.00;86.50
10245;DHT22;5167;52.164;10.530;2023-07-29T06:56:27;21.90;88.30
10245;DHT22;5167;52.164;10.530;2023-07-29T06:58:53;21.90;90.20
10245;DHT22;5167;52.164;10.530;2023-07-29T07:01:18;21.90;92.50
10245;DHT22;5167;52.164;10.530;2023-07-29T07:03:44;21.90;93.40
10245;DHT22;5167;52.164;10.530;2023-07-29T07:06:09;21.90;96.50
10245;DHT22;5167;52.164;10.530;2023-07-29T07:08:35;21.90;99.90
10245;DHT22;5167;52.164;10.530;2023-07-29T07:11:00;21.80;99.90
10245;DHT22;5167;52.164;10.530;2023-07-29T07:13:26;21.80;99.90
10245;DHT22;5167;52.164;10.530;2023-07-29T07:15:54;21.80;99.90
10245;DHT22;5167;52.164;10.530;2023-07-29T07:18:20;21.70;99.90
10245;DHT22;5167;52.164;10.530;2023-07-29T07:20:49;21.70;99.90
10245;DHT22;5167;52.164;10.530;2023-07-29T07:23:15;21.80;99.90
10245;DHT22;5167;52.164;10.530;2023-07-29T07:25:41;21.80;99.90
10245;DHT22;5167;52.164;10.530;2023-07-29T07:28:08;21.80;99.90
10245;DHT22;5167;52.164;10.530;2023-07-29T07:30:33;21.70;99.90
10245;DHT22;5167;52.164;10.530;2023-07-29T07:32:59;21.80;99.90
10245;DHT22;5167;52.164;10.530;2023-07-29T07:35:24;21.80;99.90
10245;DHT22;5167;52.164;10.530;2023-07-29T07:37:50;21.90;99.90
10245;DHT22;5167;52.164;10.530;2023-07-29T07:40:15;21.90;99.90
10245;DHT22;5167;52.164;10.530;2023-07-29T07:42:41;22.00;99.90
10245;DHT22;5167;52.164;10.530;2023-07-29T07:45:06;21.90;99.90
10245;DHT22;5167;52.164;10.530;2023-07-29T07:47:32;22.00;99.90
10245;DHT22;5167;52.164;10.530;2023-07-29T07:49:58;22.00;99.90
10245;DHT22;5167;52.164;10.530;2023-07-29T07:52:23;22.10;99.90
10245;DHT22;5167;52.164;10.530;2023-07-29T07:54:52;22.10;99.90
10245;DHT22;5167;52.164;10.530;2023-07-29T07:57:20;22.00;99.90
10245;DHT22;5167;52.164;10.530;2023-07-29T07:59:46;22.20;99.90
10245;DHT22;5167;52.164;10.530;2023-07-29T08:02:11;22.10;99.90
10245;DHT22;5167;52.164;10.530;2023-07-29T08:04:37;22.10;99.90
10245;DHT22;5167;52.164;10.530;2023-07-29T08:07:03;22.20;99.90
10245;DHT22;5167;52.164;10.530;2023-07-29T08:09:28;22.20;99.90
10245;DHT22;5167;52.164;10.530;2023-07-29T08:11:54;22.30;99.90
10245;DHT22;5167;52.164;10.530;2023-07-29T08:14:19;22.30;99.90
10245;DHT22;5167;52.164;10.530;2023-07-29T08:16:45;22.40;99.90
10245;DHT22;5167;52.164;10.530;2023-07-29T08:19:10;22.30;99.90
10245;DHT22;5167;52.164;10.530;2023-07-29T08:21:36;22.40;99.90
10245;DHT22;5167;52.164;10.530;2023-07-29T08:24:01;22.50;99.90
10245;DHT22;5167;52.164;10.530;2023-07-29T08:26:27;22.40;99.90
10245;DHT22;5167;52.164;10.530;2023-07-29T08:28:53;22.50;99.90
10245;DHT22;5167;52.164;10.530;2023-07-29T08:31:18;22.50;99.90
10245;DHT22;5167;52.164;10.530;2023-07-29T08:33:44;22.60;99.90
10245;DHT22;5167;52.164;10.530;2023-07-29T08:36:09;22.60;99.90
10245;DHT22;5167;52.164;10.530;2023-07-29T08:38:35;22.60;99.90
10245;DHT22;5167;52.164;10.530;2023-07-29T08:43:38;22.60;99.90
10245;DHT22;5167;52.164;10.530;2023-07-29T08:46:04;22.60;99.90
10245;DHT22;5167;52.164;10.530;2023-07-29T08:48:42;22.70;99.90
10245;DHT22;5167;52.164;10.530;2023-07-29T08:51:11;22.60;99.90
10245;DHT22;5167;52.164;10.530;2023-07-29T08:53:38;22.80;99.90
10245;DHT22;5167;52.164;10.530;2023-07-29T08:56:04;22.70;99.90
10245;DHT22;5167;52.164;10.530;2023-07-29T08:58:31;22.80;99.90
10245;DHT22;5167;52.164;10.530;2023-07-29T09:00:56;22.90;99.90
10245;DHT22;5167;52.164;10.530;2023-07-29T09:03:22;22.80;99.90
10245;DHT22;5167;52.164;10.530;2023-07-29T09:05:48;22.90;99.90
10245;DHT22;5167;52.164;10.530;2023-07-29T09:08:14;22.90;99.90
10245;DHT22;5167;52.164;10.530;2023-07-29T09:10:40;22.80;99.90
10245;DHT22;5167;52.164;10.530;2023-07-29T09:13:07;22.90;99.90
10245;DHT22;5167;52.164;10.530;2023-07-29T09:15:34;23.00;99.90
10245;DHT22;5167;52.164;10.530;2023-07-29T09:18:09;22.80;99.90
10245;DHT22;5167;52.164;10.530;2023-07-29T09:20:35;22.80;99.90
10245;DHT22;5167;52.164;10.530;2023-07-29T09:23:01;22.80;99.90
10245;DHT22;5167;52.164;10.530;2023-07-29T09:25:28;22.90;99.90
10245;DHT22;5167;52.164;10.530;2023-07-29T09:28:00;22.90;99.90
10245;DHT22;5167;52.164;10.530;2023-07-29T09:30:27;22.90;99.90
10245;DHT22;5167;52.164;10.530;2023-07-29T09:32:57;23.00;99.90
10245;DHT22;5167;52.164;10.530;2023-07-29T09:35:23;23.00;99.90
10245;DHT22;5167;52.164;10.530;2023-07-29T09:37:50;23.10;99.90
10245;DHT22;5167;52.164;10.530;2023-07-29T09:40:17;23.00;99.90
10245;DHT22;5167;52.164;10.530;2023-07-29T09:43:01;23.10;99.90
10245;DHT22;5167;52.164;10.530;2023-07-29T09:45:27;23.10;99.90
10245;DHT22;5167;52.164;10.530;2023-07-29T09:47:54;23.10;99.90
10245;DHT22;5167;52.164;10.530;2023-07-29T09:50:23;23.10;99.90
10245;DHT22;5167;52.164;10.530;2023-07-29T09:52:50;23.10;99.90
10245;DHT22;5167;52.164;10.530;2023-07-29T09:55:23;23.10;99.90
10245;DHT22;5167;52.164;10.530;2023-07-29T09:57:56;23.20;99.90
10245;DHT22;5167;52.164;10.530;2023-07-29T10:00:23;23.00;99.90
10245;DHT22;5167;52.164;10.530;2023-07-29T10:02:48;23.10;99.90
10245;DHT22;5167;52.164;10.530;2023-07-29T10:05:15;23.20;99.90
10245;DHT22;5167;52.164;10.530;2023-07-29T10:07:40;23.20;99.90
10245;DHT22;5167;52.164;10.530;2023-07-29T10:10:07;23.20;99.90
10245;DHT22;5167;52.164;10.530;2023-07-29T10:12:34;23.20;99.90
10245;DHT22;5167;52.164;10.530;2023-07-29T10:15:04;23.20;99.90
10245;DHT22;5167;52.164;10.530;2023-07-29T10:17:33;23.30;99.90
10245;DHT22;5167;52.164;10.530;2023-07-29T10:20:00;23.40;99.90
10245;DHT22;5167;52.164;10.530;2023-07-29T10:22:28;23.60;99.90
10245;DHT22;5167;52.164;10.530;2023-07-29T10:25:03;23.80;99.90
10245;DHT22;5167;52.164;10.530;2023-07-29T10:27:40;23.80;99.90
10245;DHT22;5167;52.164;10.530;2023-07-29T10:30:08;23.90;99.90
10245;DHT22;5167;52.164;10.530;2023-07-29T10:32:34;24.10;99.90
10245;DHT22;5167;52.164;10.530;2023-07-29T10:35:00;24.20;99.90
10245;DHT22;5167;52.164;10.530;2023-07-29T10:37:26;24.20;99.90
10245;DHT22;5167;52.164;10.530;2023-07-29T10:39:53;24.20;99.90
10245;DHT22;5167;52.164;10.530;2023-07-29T10:42:19;24.40;99.90
10245;DHT22;5167;52.164;10.530;2023-07-29T10:44:52;24.40;99.90
10245;DHT22;5167;52.164;10.530;2023-07-29T10:47:23;24.40;99.90
10245;DHT22;5167;52.164;10.530;2023-07-29T10:49:54;24.30;99.90
10245;DHT22;5167;52.164;10.530;2023-07-29T10:54:59;24.40;99.90
10245;DHT22;5167;52.164;10.530;2023-07-29T10:57:36;24.40;99.90
10245;DHT22;5167;52.164;10.530;2023-07-29T11:00:03;24.50;99.90
10245;DHT22;5167;52.164;10.530;2023-07-29T11:02:36;24.50;99.90
10245;DHT22;5167;52.164;10.530;2023-07-29T11:05:06;24.60;99.90
10245;DHT22;5167;52.164;10.530;2023-07-29T11:07:46;24.70;97.10
10245;DHT22;5167;52.164;10.530;2023-07-29T11:10:13;24.70;96.50
10245;DHT22;5167;52.164;10.530;2023-07-29T11:12:45;24.80;92.60
10245;DHT22;5167;52.164;10.530;2023-07-29T11:15:15;24.90;91.60
10245;DHT22;5167;52.164;10.530;2023-07-29T11:20:07;25.00;84.40
10245;DHT22;5167;52.164;10.530;2023-07-29T11:22:34;25.10;84.90
10245;DHT22;5167;52.164;10.530;2023-07-29T11:24:59;25.10;74.00
10245;DHT22;5167;52.164;10.530;2023-07-29T11:27:26;25.10;71.60
10245;DHT22;5167;52.164;10.530;2023-07-29T11:29:57;25.20;71.10
10245;DHT22;5167;52.164;10.530;2023-07-29T11:32:23;25.20;66.60
10245;DHT22;5167;52.164;10.530;2023-07-29T11:34:49;25.10;64.50
10245;DHT22;5167;52.164;10.530;2023-07-29T11:37:15;25.10;63.00
10245;DHT22;5167;52.164;10.530;2023-07-29T11:39:41;25.10;59.00
10245;DHT22;5167;52.164;10.530;2023-07-29T11:42:10;25.10;59.80
10245;DHT22;5167;52.164;10.530;2023-07-29T11:44:36;25.30;57.30
10245;DHT22;5167;52.164;10.530;2023-07-29T11:47:02;25.40;57.00
10245;DHT22;5167;52.164;10.530;2023-07-29T11:49:27;25.50;56.80
10245;DHT22;5167;52.164;10.530;2023-07-29T11:51:53;25.60;48.10
10245;DHT22;5167;52.164;10.530;2023-07-29T11:54:19;25.70;42.60
10245;DHT22;5167;52.164;10.530;2023-07-29T11:56:47;25.80;39.20
10245;DHT22;5167;52.164;10.530;2023-07-29T11:59:13;25.90;37.80
10245;DHT22;5167;52.164;10.530;2023-07-29T12:01:40;25.90;37.50
10245;DHT22;5167;52.164;10.530;2023-07-29T12:04:05;26.00;36.10
10245;DHT22;5167;52.164;10.530;2023-07-29T12:06:31;26.00;36.80
10245;DHT22;5167;52.164;10.530;2023-07-29T12:08:57;26.00;33.80
10245;DHT22;5167;52.164;10.530;2023-07-29T12:11:23;26.00;33.40
10245;DHT22;5167;52.164;10.530;2023-07-29T12:13:48;26.10;29.60
10245;DHT22;5167;52.164;10.530;2023-07-29T12:16:17;26.10;30.10
10245;DHT22;5167;52.164;10.530;2023-07-29T12:18:45;26.20;30.80
10245;DHT22;5167;52.164;10.530;2023-07-29T12:21:11;26.20;26.80
10245;DHT22;5167;52.164;10.530;2023-07-29T12:23:39;26.20;24.60
10245;DHT22;5167;52.164;10.530;2023-07-29T12:26:04;26.20;21.30
10245;DHT22;5167;52.164;10.530;2023-07-29T12:28:30;26.20;20.60
10245;DHT22;5167;52.164;10.530;2023-07-29T12:30:57;26.10;14.90
10245;DHT22;5167;52.164;10.530;2023-07-29T12:33:33;26.00;17.10
10245;DHT22;5167;52.164;10.530;2023-07-29T12:35:59;26.00;18.80
10245;DHT22;5167;52.164;10.530;2023-07-29T12:38:31;25.90;21.70
10245;DHT22;5167;52.164;10.530;2023-07-29T12:40:56;25.90;22.60
10245;DHT22;5167;52.164;10.530;2023-07-29T12:43:22;25.80;22.90
10245;DHT22;5167;52.164;10.530;2023-07-29T12:45:51;25.80;22.70
10245;DHT22;5167;52.164;10.530;2023-07-29T12:48:17;25.90;23.00
10245;DHT22;5167;52.164;10.530;2023-07-29T12:50:43;25.90;23.00
10245;DHT22;5167;52.164;10.530;2023-07-29T12:53:09;25.90;21.60
10245;DHT22;5167;52.164;10.530;2023-07-29T12:55:38;25.90;16.20
10245;DHT22;5167;52.164;10.530;2023-07-29T12:58:03;25.90;16.70
10245;DHT22;5167;52.164;10.530;2023-07-29T13:00:29;25.80;14.70
10245;DHT22;5167;52.164;10.530;2023-07-29T13:02:55;25.90;12.20
10245;DHT22;5167;52.164;10.530;2023-07-29T13:05:21;25.90;11.50
10245;DHT22;5167;52.164;10.530;2023-07-29T13:07:46;26.00;13.00
10245;DHT22;5167;52.164;10.530;2023-07-29T13:10:12;26.10;12.30
10245;DHT22;5167;52.164;10.530;2023-07-29T13:12:38;26.10;11.90
10245;DHT22;5167;52.164;10.530;2023-07-29T13:15:04;26.20;11.60
10245;DHT22;5167;52.164;10.530;2023-07-29T13:17:30;26.20;8.90
10245;DHT22;5167;52.164;10.530;2023-07-29T13:19:55;26.30;5.00
10245;DHT22;5167;52.164;10.530;2023-07-29T13:22:21;26.20;5.00
10245;DHT22;5167;52.164;10.530;2023-07-29T13:24:46;26.20;5.00
10245;DHT22;5167;52.164;10.530;2023-07-29T13:27:12;26.20;5.00
10245;DHT22;5167;52.164;10.530;2023-07-29T13:29:38;26.20;5.00
10245;DHT22;5167;52.164;10.530;2023-07-29T13:32:04;26.10;5.00
10245;DHT22;5167;52.164;10.530;2023-07-29T13:34:30;26.20;5.00
10245;DHT22;5167;52.164;10.530;2023-07-29T13:36:56;26.20;5.00
10245;DHT22;5167;52.164;10.530;2023-07-29T13:39:21;26.30;5.00
10245;DHT22;5167;52.164;10.530;2023-07-29T13:41:47;26.20;5.00
10245;DHT22;5167;52.164;10.530;2023-07-29T13:44:12;26.20;5.00
10245;DHT22;5167;52.164;10.530;2023-07-29T13:46:37;26.10;5.00
10245;DHT22;5167;52.164;10.530;2023-07-29T13:49:03;26.20;5.00
10245;DHT22;5167;52.164;10.530;2023-07-29T13:51:28;26.20;5.00
10245;DHT22;5167;52.164;10.530;2023-07-29T13:53:54;26.30;5.00
10245;DHT22;5167;52.164;10.530;2023-07-29T13:56:21;26.30;5.00
10245;DHT22;5167;52.164;10.530;2023-07-29T13:58:47;26.40;5.00
10245;DHT22;5167;52.164;10.530;2023-07-29T14:01:12;26.40;5.00
10245;DHT22;5167;52.164;10.530;2023-07-29T14:03:38;26.40;5.00
10245;DHT22;5167;52.164;10.530;2023-07-29T14:06:03;26.50;5.00
10245;DHT22;5167;52.164;10.530;2023-07-29T14:08:29;26.50;5.00
10245;DHT22;5167;52.164;10.530;2023-07-29T14:10:54;26.50;5.00
10245;DHT22;5167;52.164;10.530;2023-07-29T14:13:20;26.50;5.00
10245;DHT22;5167;52.164;10.530;2023-07-29T14:15:45;26.50;5.00
10245;DHT22;5167;52.164;10.530;2023-07-29T14:18:11;26.50;5.00
10245;DHT22;5167;52.164;10.530;2023-07-29T14:20:36;26.60;5.00
10245;DHT22;5167;52.164;10.530;2023-07-29T14:23:02;26.70;5.00
10245;DHT22;5167;52.164;10.530;2023-07-29T14:25:27;26.70;5.00
10245;DHT22;5167;52.164;10.530;2023-07-29T14:27:53;26.70;5.00
10245;DHT22;5167;52.164;10.530;2023-07-29T14:30:18;26.60;5.00
10245;DHT22;5167;52.164;10.530;2023-07-29T14:32:44;26.60;5.00
10245;DHT22;5167;52.164;10.530;2023-07-29T14:35:09;26.70;5.00
10245;DHT22;5167;52.164;10.530;2023-07-29T14:37:35;26.70;5.00
10245;DHT22;5167;52.164;10.530;2023-07-29T14:40:01;26.60;5.00
10245;DHT22;5167;52.164;10.530;2023-07-29T14:42:27;26.70;5.00
10245;DHT22;5167;52.164;10.530;2023-07-29T14:44:53;26.70;5.00
10245;DHT22;5167;52.164;10.530;2023-07-29T14:47:19;26.70;5.00
10245;DHT22;5167;52.164;10.530;2023-07-29T14:49:45;26.70;5.00
10245;DHT22;5167;52.164;10.530;2023-07-29T14:52:11;26.80;5.00
10245;DHT22;5167;52.164;10.530;2023-07-29T14:54:36;26.80;5.00
10245;DHT22;5167;52.164;10.530;2023-07-29T14:57:02;26.80;5.00
10245;DHT22;5167;52.164;10.530;2023-07-29T14:59:28;26.80;5.00
10245;DHT22;5167;52.164;10.530;2023-07-29T15:01:53;26.80;5.00
10245;DHT22;5167;52.164;10.530;2023-07-29T15:04:19;26.70;5.00
10245;DHT22;5167;52.164;10.530;2023-07-29T15:06:44;26.70;5.00
10245;DHT22;5167;52.164;10.530;2023-07-29T15:09:10;26.70;5.00
10245;DHT22;5167;52.164;10.530;2023-07-29T15:11:36;26.70;5.00
10245;DHT22;5167;52.164;10.530;2023-07-29T15:14:02;26.60;5.00
10245;DHT22;5167;52.164;10.530;2023-07-29T15:16:29;26.60;5.00
10245;DHT22;5167;52.164;10.530;2023-07-29T15:18:54;26.60;5.00
10245;DHT22;5167;52.164;10.530;2023-07-29T15:21:21;26.60;5.00
10245;DHT22;5167;52.164;10.530;2023-07-29T15:23:46;26.60;5.00
10245;DHT22;5167;52.164;10.530;2023-07-29T15:26:12;26.50;5.00
10245;DHT22;5167;52.164;10.530;2023-07-29T15:28:38;26.60;5.00
10245;DHT22;5167;52.164;10.530;2023-07-29T15:31:03;26.60;5.00
10245;DHT22;5167;52.164;10.530;2023-07-29T15:33:29;26.60;5.00
10245;DHT22;5167;52.164;10.530;2023-07-29T15:35:54;26.60;5.00
10245;DHT22;5167;52.164;10.530;2023-07-29T15:38:20;26.60;5.00
10245;DHT22;5167;52.164;10.530;2023-07-29T15:40:45;26.60;5.00
10245;DHT22;5167;52.164;10.530;2023-07-29T15:43:14;26.60;5.00
10245;DHT22;5167;52.164;10.530;2023-07-29T15:45:39;26.50;5.00
10245;DHT22;5167;52.164;10.530;2023-07-29T15:48:05;26.50;5.00
10245;DHT22;5167;52.164;10.530;2023-07-29T15:50:30;26.60;5.00
10245;DHT22;5167;52.164;10.530;2023-07-29T15:52:56;26.50;5.00